createdAt,value
2019-05-18T00:01:08.363Z,12.20
2019-05-18T00:03:41.197Z,12.00
2019-05-18T00:06:14.055Z,11.90
2019-05-18T00:08:46.894Z,11.80
2019-05-18T00:11:19.715Z,11.80
2019-05-18T00:13:52.564Z,11.80
2019-05-18T00:16:25.356Z,11.80
2019-05-18T00:18:58.182Z,11.80
2019-05-18T00:21:30.989Z,11.60
2019-05-18T00:24:03.959Z,11.40
2019-05-18T00:26:36.877Z,11.10
2019-05-18T00:29:09.693Z,11.00
2019-05-18T00:31:42.646Z,11.00
2019-05-18T00:34:15.603Z,10.90
2019-05-18T00:36:48.431Z,10.90
2019-05-18T00:39:21.263Z,10.90
2019-05-18T00:41:54.257Z,10.90
2019-05-18T00:44:27.113Z,11.00
2019-05-18T00:46:59.930Z,11.00
2019-05-18T00:49:32.762Z,11.00
2019-05-18T00:52:05.537Z,10.90
2019-05-18T00:54:38.348Z,10.80
2019-05-18T00:57:11.182Z,10.80
2019-05-18T00:59:44.034Z,10.80
2019-05-18T01:02:16.813Z,10.80
2019-05-18T01:04:49.639Z,10.80
2019-05-18T01:07:22.441Z,10.80
2019-05-18T01:09:55.897Z,10.80
2019-05-18T01:12:28.833Z,10.80
2019-05-18T01:15:01.706Z,10.90
2019-05-18T01:17:34.513Z,11.00
2019-05-18T01:20:09.016Z,11.00
2019-05-18T01:22:41.982Z,11.00
2019-05-18T01:25:17.162Z,11.00
2019-05-18T01:27:50.067Z,10.90
2019-05-18T01:30:24.279Z,10.80
2019-05-18T01:32:57.068Z,10.70
2019-05-18T01:35:29.915Z,10.60
2019-05-18T01:38:02.939Z,10.50
2019-05-18T01:40:35.767Z,10.50
2019-05-18T01:43:09.676Z,10.50
2019-05-18T01:45:42.528Z,10.50
2019-05-18T01:48:15.348Z,10.50
2019-05-18T01:50:48.154Z,10.50
2019-05-18T01:53:20.944Z,10.60
2019-05-18T01:55:53.830Z,10.60
2019-05-18T01:58:26.574Z,10.40
2019-05-18T02:00:59.417Z,10.30
2019-05-18T02:03:32.229Z,10.20
2019-05-18T02:06:05.064Z,10.30
2019-05-18T02:08:37.881Z,10.40
2019-05-18T02:11:10.691Z,10.50
2019-05-18T02:13:44.597Z,10.50
2019-05-18T02:16:17.477Z,10.40
2019-05-18T02:18:50.247Z,10.40
2019-05-18T02:21:23.097Z,10.50
2019-05-18T02:23:55.932Z,10.60
2019-05-18T02:26:28.719Z,10.60
2019-05-18T02:29:01.994Z,10.60
2019-05-18T02:31:34.942Z,10.70
2019-05-18T02:34:07.762Z,10.70
2019-05-18T02:36:40.565Z,10.70
2019-05-18T02:39:13.384Z,10.60
2019-05-18T02:41:46.159Z,10.50
2019-05-18T02:44:19.212Z,10.50
2019-05-18T02:46:52.270Z,10.40
2019-05-18T02:49:25.127Z,10.40
2019-05-18T02:51:57.908Z,10.40
2019-05-18T02:54:30.732Z,10.40
2019-05-18T02:57:03.517Z,10.30
2019-05-18T02:59:36.325Z,10.30
2019-05-18T03:02:09.140Z,10.30
2019-05-18T03:04:42.048Z,10.20
2019-05-18T03:07:14.865Z,10.20
2019-05-18T03:09:47.706Z,10.30
2019-05-18T03:12:20.542Z,10.30
2019-05-18T03:14:53.381Z,10.30
2019-05-18T03:17:26.200Z,10.20
2019-05-18T03:19:59.010Z,10.20
2019-05-18T03:22:32.939Z,10.20
2019-05-18T03:25:07.093Z,10.10
2019-05-18T03:27:39.871Z,10.00
2019-05-18T03:30:12.951Z,10.00
2019-05-18T03:32:45.725Z,10.10
2019-05-18T03:35:18.532Z,10.10
2019-05-18T03:37:51.334Z,10.10
2019-05-18T03:40:24.130Z,10.20
2019-05-18T03:42:56.959Z,10.20
2019-05-18T03:45:29.851Z,10.20
2019-05-18T03:48:02.776Z,10.20
2019-05-18T03:50:35.593Z,10.20
2019-05-18T03:53:08.388Z,10.30
2019-05-18T03:55:41.204Z,10.40
2019-05-18T03:58:14.048Z,10.40
2019-05-18T04:00:46.866Z,10.50
2019-05-18T04:03:19.695Z,10.40
2019-05-18T04:05:52.536Z,10.40
2019-05-18T04:08:26.411Z,10.40
2019-05-18T04:10:59.214Z,10.40
2019-05-18T04:13:32.007Z,10.40
2019-05-18T04:16:04.812Z,10.40
2019-05-18T04:18:37.622Z,10.40
2019-05-18T04:21:10.419Z,10.40
2019-05-18T04:23:43.240Z,10.40
2019-05-18T04:26:16.059Z,10.40
2019-05-18T04:28:48.891Z,10.30
2019-05-18T04:31:21.693Z,10.40
2019-05-18T04:33:54.497Z,10.50
2019-05-18T04:36:28.426Z,10.60
2019-05-18T04:39:01.231Z,10.70
2019-05-18T04:41:35.473Z,10.90
2019-05-18T04:44:08.255Z,11.00
2019-05-18T04:46:41.057Z,11.10
2019-05-18T04:49:13.878Z,11.20
2019-05-18T04:51:48.809Z,11.10
2019-05-18T04:54:21.643Z,11.20
2019-05-18T04:56:54.448Z,11.30
2019-05-18T04:59:27.268Z,11.40
2019-05-18T05:02:00.136Z,11.40
2019-05-18T05:04:33.036Z,11.70
2019-05-18T05:07:05.885Z,11.80
2019-05-18T05:09:38.829Z,12.00
2019-05-18T05:12:12.545Z,12.00
2019-05-18T05:14:45.345Z,11.90
2019-05-18T05:17:18.167Z,11.80
2019-05-18T05:19:51.091Z,11.80
2019-05-18T05:22:23.910Z,11.70
2019-05-18T05:24:58.074Z,11.80
2019-05-18T05:27:30.897Z,11.80
2019-05-18T05:30:04.417Z,11.80
2019-05-18T05:32:39.413Z,11.80
2019-05-18T05:35:12.226Z,11.80
2019-05-18T05:37:45.053Z,11.90
2019-05-18T05:40:18.636Z,11.90
2019-05-18T05:42:51.468Z,12.10
2019-05-18T05:45:25.410Z,12.10
2019-05-18T05:47:58.285Z,12.30
2019-05-18T05:50:35.843Z,12.40
2019-05-18T05:53:05.807Z,12.60
2019-05-18T05:55:38.643Z,12.90
2019-05-18T05:58:11.473Z,13.20
2019-05-18T06:00:44.305Z,13.90
2019-05-18T06:03:17.135Z,15.30
2019-05-18T06:05:49.994Z,16.60
2019-05-18T06:08:22.835Z,17.10
2019-05-18T06:10:55.740Z,17.20
2019-05-18T06:13:28.551Z,17.30
2019-05-18T06:16:01.621Z,16.90
2019-05-18T06:18:34.488Z,17.30
2019-05-18T06:21:07.339Z,17.20
2019-05-18T06:23:40.156Z,17.10
2019-05-18T06:26:12.980Z,17.10
2019-05-18T06:28:45.793Z,17.20
2019-05-18T06:31:18.617Z,18.10
2019-05-18T06:33:51.529Z,18.00
2019-05-18T06:36:24.423Z,18.10
2019-05-18T06:38:57.223Z,18.20
2019-05-18T06:41:30.086Z,18.90
2019-05-18T06:44:03.037Z,19.00
2019-05-18T06:46:36.043Z,18.20
2019-05-18T06:49:08.916Z,16.60
2019-05-18T06:51:41.826Z,16.60
2019-05-18T06:54:14.677Z,16.80
2019-05-18T06:56:48.081Z,16.60
2019-05-18T06:59:22.217Z,16.00
2019-05-18T07:01:55.144Z,15.80
2019-05-18T07:04:27.984Z,15.30
2019-05-18T07:07:00.782Z,15.40
2019-05-18T07:09:33.710Z,15.60
2019-05-18T07:12:06.601Z,15.60
2019-05-18T07:14:39.414Z,15.60
2019-05-18T07:17:12.278Z,15.70
2019-05-18T07:19:45.072Z,15.90
2019-05-18T07:22:17.905Z,16.00
2019-05-18T07:24:50.715Z,16.60
2019-05-18T07:27:23.570Z,16.60
2019-05-18T07:29:56.380Z,16.70
2019-05-18T07:32:29.144Z,16.40
2019-05-18T07:35:02.049Z,16.60
2019-05-18T07:37:36.061Z,16.60
2019-05-18T07:40:09.300Z,17.10
2019-05-18T07:42:42.069Z,16.90
2019-05-18T07:45:15.142Z,17.20
2019-05-18T07:47:47.895Z,17.50
2019-05-18T07:50:34.579Z,17.60
2019-05-18T07:53:08.327Z,18.10
2019-05-18T07:55:41.078Z,18.30
2019-05-18T07:58:14.095Z,18.10
2019-05-18T08:00:46.889Z,18.20
2019-05-18T08:03:19.670Z,18.30
2019-05-18T08:05:52.447Z,18.90
2019-05-18T08:08:26.315Z,19.00
2019-05-18T08:10:59.041Z,19.20
2019-05-18T08:13:31.780Z,19.70
2019-05-18T08:16:05.606Z,20.80
2019-05-18T08:18:38.394Z,20.40
2019-05-18T08:21:12.129Z,20.40
2019-05-18T08:23:44.911Z,21.10
2019-05-18T08:26:17.628Z,21.10
2019-05-18T08:28:50.378Z,21.80
2019-05-18T08:31:23.084Z,22.50
2019-05-18T08:33:55.852Z,22.10
2019-05-18T08:36:28.591Z,22.00
2019-05-18T08:39:01.379Z,22.60
2019-05-18T08:41:35.306Z,22.80
2019-05-18T08:44:08.051Z,22.50
2019-05-18T08:46:40.831Z,22.80
2019-05-18T08:49:13.679Z,22.90
2019-05-18T08:51:46.437Z,22.20
2019-05-18T08:54:19.172Z,22.00
2019-05-18T08:56:51.883Z,21.60
2019-05-18T08:59:24.442Z,22.00
2019-05-18T09:01:57.393Z,21.90
2019-05-18T09:04:30.268Z,20.90
2019-05-18T09:07:03.077Z,20.80
2019-05-18T09:09:35.927Z,20.60
2019-05-18T09:12:08.847Z,20.20
2019-05-18T09:14:41.668Z,20.00
2019-05-18T09:17:14.538Z,20.40
2019-05-18T09:19:47.358Z,21.10
2019-05-18T09:22:23.073Z,21.60
2019-05-18T09:24:55.155Z,22.00
2019-05-18T09:27:28.021Z,22.00
2019-05-18T09:30:00.896Z,22.10
2019-05-18T09:32:33.808Z,22.60
2019-05-18T09:35:07.972Z,22.70
2019-05-18T09:37:40.907Z,22.40
2019-05-18T09:40:14.204Z,22.40
2019-05-18T09:42:47.001Z,22.00
2019-05-18T09:45:21.146Z,21.70
2019-05-18T09:47:54.107Z,21.40
2019-05-18T09:50:26.972Z,22.10
2019-05-18T09:52:59.840Z,21.30
2019-05-18T09:55:32.675Z,21.20
2019-05-18T09:58:07.491Z,20.90
2019-05-18T10:00:40.371Z,21.30
2019-05-18T10:03:14.816Z,21.80
2019-05-18T10:05:47.644Z,22.00
2019-05-18T10:08:20.489Z,21.70
2019-05-18T10:10:53.319Z,21.90
2019-05-18T10:13:26.213Z,22.10
2019-05-18T10:15:59.097Z,21.70
2019-05-18T10:18:31.911Z,21.80
2019-05-18T10:21:04.802Z,21.60
2019-05-18T10:23:40.391Z,21.50
2019-05-18T10:26:12.478Z,21.50
2019-05-18T10:28:45.367Z,21.50
2019-05-18T10:31:18.328Z,21.60
2019-05-18T10:33:51.232Z,21.40
2019-05-18T10:36:24.128Z,21.40
2019-05-18T10:38:57.126Z,21.70
2019-05-18T10:41:30.968Z,21.70
2019-05-18T10:44:04.072Z,22.10
2019-05-18T10:46:36.962Z,22.50
2019-05-18T10:49:09.802Z,22.30
2019-05-18T10:51:42.639Z,22.20
2019-05-18T10:54:15.479Z,22.40
2019-05-18T10:56:48.504Z,22.40
2019-05-18T10:59:21.348Z,22.40
2019-05-18T11:01:54.182Z,22.60
2019-05-18T11:04:27.047Z,22.30
2019-05-18T11:06:59.911Z,22.60
2019-05-18T11:09:33.860Z,22.80
2019-05-18T11:12:06.686Z,23.00
2019-05-18T11:14:39.642Z,22.90
2019-05-18T11:17:12.464Z,23.20
2019-05-18T11:19:45.415Z,22.90
2019-05-18T11:22:19.242Z,22.80
2019-05-18T11:24:52.103Z,22.70
2019-05-18T11:27:24.915Z,22.60
2019-05-18T11:29:57.808Z,22.50
2019-05-18T11:32:30.616Z,22.40
2019-05-18T11:35:03.996Z,22.40
2019-05-18T11:37:36.845Z,22.30
2019-05-18T11:40:11.620Z,22.20
2019-05-18T11:42:44.477Z,22.30
2019-05-18T11:45:18.622Z,22.20
2019-05-18T11:47:51.497Z,22.80
2019-05-18T11:50:24.728Z,23.00
2019-05-18T11:52:57.548Z,22.70
2019-05-18T11:55:30.402Z,22.40
2019-05-18T11:58:03.380Z,22.20
2019-05-18T12:00:36.261Z,22.40
2019-05-18T12:03:09.118Z,22.40
2019-05-18T12:05:42.004Z,22.80
2019-05-18T12:08:14.799Z,23.10
2019-05-18T12:10:47.658Z,23.00
2019-05-18T12:13:22.428Z,23.30
2019-05-18T12:15:55.272Z,23.10
2019-05-18T12:18:28.234Z,23.00
2019-05-18T12:21:01.107Z,23.00
2019-05-18T12:23:33.938Z,23.00
2019-05-18T12:26:06.889Z,23.20
2019-05-18T12:28:39.710Z,22.90
2019-05-18T12:31:13.656Z,22.80
2019-05-18T12:33:46.522Z,22.90
2019-05-18T12:36:19.416Z,23.10
2019-05-18T12:38:52.321Z,22.80
2019-05-18T12:41:31.082Z,22.80
2019-05-18T12:44:03.878Z,22.90
2019-05-18T12:46:36.788Z,23.10
2019-05-18T12:49:09.605Z,23.20
2019-05-18T12:51:42.441Z,22.90
2019-05-18T12:54:28.702Z,22.90
2019-05-18T12:56:50.133Z,22.70
2019-05-18T12:59:22.956Z,23.20
2019-05-18T13:01:55.937Z,23.70
2019-05-18T13:04:28.800Z,24.10
2019-05-18T13:07:01.714Z,23.80
2019-05-18T13:09:34.653Z,23.70
2019-05-18T13:12:07.526Z,23.70
2019-05-18T13:14:40.398Z,23.90
2019-05-18T13:17:13.243Z,23.70
2019-05-18T13:19:46.086Z,23.80
2019-05-18T13:22:18.964Z,23.60
2019-05-18T13:24:52.373Z,23.30
2019-05-18T13:27:38.294Z,23.30
2019-05-18T13:30:00.176Z,23.20
2019-05-18T13:32:33.113Z,23.30
2019-05-18T13:35:07.985Z,23.20
2019-05-18T13:37:40.881Z,23.00
2019-05-18T13:40:14.756Z,22.90
2019-05-18T13:42:47.602Z,22.90
2019-05-18T13:45:20.699Z,22.80
2019-05-18T13:47:53.539Z,22.50
2019-05-18T13:50:26.402Z,22.40
2019-05-18T13:52:59.271Z,22.50
2019-05-18T13:55:32.111Z,22.40
2019-05-18T13:58:05.133Z,22.20
2019-05-18T14:00:38.032Z,21.90
2019-05-18T14:03:10.928Z,21.80
2019-05-18T14:05:43.748Z,21.80
2019-05-18T14:08:16.587Z,21.70
2019-05-18T14:10:49.442Z,21.80
2019-05-18T14:13:22.397Z,21.40
2019-05-18T14:15:55.275Z,21.10
2019-05-18T14:18:28.102Z,20.80
2019-05-18T14:21:01.034Z,20.60
2019-05-18T14:23:33.869Z,20.10
2019-05-18T14:26:06.803Z,20.00
2019-05-18T14:28:39.675Z,19.80
2019-05-18T14:31:12.487Z,19.90
2019-05-18T14:33:45.344Z,20.00
2019-05-18T14:36:18.191Z,19.80
2019-05-18T14:38:51.047Z,19.80
2019-05-18T14:41:24.152Z,19.70
2019-05-18T14:43:57.153Z,19.80
2019-05-18T14:46:30.031Z,19.80
2019-05-18T14:49:02.870Z,19.90
2019-05-18T14:51:35.749Z,20.10
2019-05-18T14:54:08.593Z,20.30
2019-05-18T14:56:41.469Z,20.30
2019-05-18T14:59:14.337Z,20.20
2019-05-18T15:01:47.258Z,20.40
2019-05-18T15:04:20.125Z,20.50
2019-05-18T15:06:53.009Z,20.60
2019-05-18T15:09:25.953Z,20.60
2019-05-18T15:11:58.730Z,20.70
2019-05-18T15:14:31.604Z,20.60
2019-05-18T15:17:04.642Z,20.70
2019-05-18T15:19:37.495Z,20.60
2019-05-18T15:22:10.301Z,20.40
2019-05-18T15:24:43.136Z,20.50
2019-05-18T15:27:15.986Z,20.70
2019-05-18T15:29:48.855Z,20.90
2019-05-18T15:32:21.820Z,21.10
2019-05-18T15:34:54.692Z,21.10
2019-05-18T15:37:27.703Z,21.10
2019-05-18T15:40:00.543Z,21.30
2019-05-18T15:42:33.377Z,21.40
2019-05-18T15:45:06.874Z,21.50
2019-05-18T15:47:39.794Z,21.50
2019-05-18T15:50:13.552Z,21.60
2019-05-18T15:52:46.460Z,21.70
2019-05-18T15:55:19.497Z,21.80
2019-05-18T15:57:52.363Z,21.70
2019-05-18T16:00:25.815Z,21.70
2019-05-18T16:02:58.680Z,21.60
2019-05-18T16:05:31.556Z,21.40
2019-05-18T16:08:04.608Z,21.30
2019-05-18T16:10:39.408Z,21.30
2019-05-18T16:13:12.244Z,21.50
2019-05-18T16:15:45.110Z,21.50
2019-05-18T16:18:17.945Z,21.50
2019-05-18T16:20:50.766Z,21.60
2019-05-18T16:23:23.606Z,21.70
2019-05-18T16:25:56.469Z,21.60
2019-05-18T16:28:29.297Z,21.40
2019-05-18T16:31:02.316Z,21.40
2019-05-18T16:33:35.154Z,21.30
2019-05-18T16:36:08.393Z,21.50
2019-05-18T16:38:41.425Z,21.40
2019-05-18T16:41:14.263Z,21.40
2019-05-18T16:43:47.202Z,21.40
2019-05-18T16:46:20.091Z,21.40
2019-05-18T16:48:52.945Z,21.30
2019-05-18T16:51:25.805Z,21.40
2019-05-18T16:53:58.652Z,21.30
2019-05-18T16:56:35.287Z,21.30
2019-05-18T16:59:06.350Z,21.30
2019-05-18T17:01:39.254Z,21.40
2019-05-18T17:04:12.138Z,21.30
2019-05-18T17:06:44.985Z,21.40
2019-05-18T17:09:17.970Z,21.50
2019-05-18T17:11:50.966Z,21.60
2019-05-18T17:14:23.835Z,21.60
2019-05-18T17:16:57.778Z,21.60
2019-05-18T17:19:30.583Z,21.60
2019-05-18T17:22:03.438Z,21.70
2019-05-18T17:24:36.270Z,21.70
2019-05-18T17:27:09.176Z,21.70
2019-05-18T17:29:41.993Z,21.70
2019-05-18T17:32:15.779Z,21.80
2019-05-18T17:34:48.624Z,21.60
2019-05-18T17:37:21.539Z,21.50
2019-05-18T17:39:54.373Z,21.10
2019-05-18T17:42:27.181Z,20.90
2019-05-18T17:45:00.129Z,20.70
2019-05-18T17:47:32.957Z,20.70
2019-05-18T17:50:06.134Z,20.80
2019-05-18T17:52:39.102Z,20.90
2019-05-18T17:55:15.853Z,20.90
2019-05-18T17:57:47.555Z,20.90
2019-05-18T18:00:20.495Z,20.90
2019-05-18T18:02:53.362Z,20.90
2019-05-18T18:05:26.263Z,20.80
2019-05-18T18:07:59.486Z,20.80
2019-05-18T18:10:32.383Z,20.70
2019-05-18T18:13:05.441Z,20.70
2019-05-18T18:15:38.469Z,20.60
2019-05-18T18:18:11.342Z,20.50
2019-05-18T18:20:44.290Z,20.30
2019-05-18T18:23:17.319Z,20.10
2019-05-18T18:25:50.305Z,20.10
2019-05-18T18:28:23.173Z,20.00
2019-05-18T18:30:56.053Z,19.90
2019-05-18T18:33:28.948Z,19.80
2019-05-18T18:36:01.841Z,19.70
2019-05-18T18:38:34.806Z,19.70
2019-05-18T18:41:07.652Z,19.50
2019-05-18T18:43:40.574Z,19.30
2019-05-18T18:46:13.409Z,19.30
2019-05-18T18:48:46.331Z,19.30
2019-05-18T18:51:19.193Z,19.30
2019-05-18T18:53:53.282Z,19.00
2019-05-18T18:56:26.114Z,18.80
2019-05-18T18:58:59.014Z,18.60
2019-05-18T19:01:31.882Z,18.50
2019-05-18T19:04:04.795Z,18.40
2019-05-18T19:06:37.765Z,18.30
2019-05-18T19:09:10.639Z,18.10
2019-05-18T19:11:43.503Z,17.90
2019-05-18T19:14:16.530Z,17.70
2019-05-18T19:16:49.347Z,17.70
2019-05-18T19:19:22.282Z,17.60
2019-05-18T19:21:56.276Z,17.50
2019-05-18T19:24:29.142Z,17.40
2019-05-18T19:27:03.202Z,17.30
2019-05-18T19:29:38.629Z,17.30
2019-05-18T19:32:11.506Z,17.30
2019-05-18T19:34:44.522Z,17.30
2019-05-18T19:37:17.423Z,17.20
2019-05-18T19:39:50.366Z,17.20
2019-05-18T19:42:23.215Z,17.20
2019-05-18T19:44:56.097Z,17.20
2019-05-18T19:47:29.131Z,17.10
2019-05-18T19:50:02.274Z,17.00
2019-05-18T19:52:35.127Z,17.00
2019-05-18T19:55:08.205Z,17.00
2019-05-18T19:57:41.063Z,17.00
2019-05-18T20:00:14.778Z,17.00
2019-05-18T20:02:47.655Z,16.90
2019-05-18T20:05:20.547Z,17.00
2019-05-18T20:07:53.422Z,16.80
2019-05-18T20:10:26.353Z,16.70
2019-05-18T20:12:59.238Z,16.50
2019-05-18T20:15:32.200Z,16.50
2019-05-18T20:18:05.689Z,16.40
2019-05-18T20:20:38.595Z,16.20
2019-05-18T20:23:11.754Z,16.10
2019-05-18T20:25:44.697Z,15.80
2019-05-18T20:28:23.928Z,15.50
2019-05-18T20:30:52.559Z,15.20
2019-05-18T20:33:25.633Z,15.10
2019-05-18T20:35:58.530Z,15.00
2019-05-18T20:38:31.467Z,15.00
2019-05-18T20:41:04.452Z,15.00
2019-05-18T20:43:37.341Z,15.00
2019-05-18T20:46:10.211Z,15.00
2019-05-18T20:48:43.113Z,15.00
2019-05-18T20:51:15.988Z,14.90
2019-05-18T20:53:48.939Z,15.00
2019-05-18T20:56:21.896Z,14.90
2019-05-18T20:58:54.787Z,14.90
2019-05-18T21:01:28.757Z,14.80
2019-05-18T21:04:01.722Z,14.80
2019-05-18T21:06:34.699Z,14.70
2019-05-18T21:09:07.566Z,14.80
2019-05-18T21:11:40.431Z,14.70
2019-05-18T21:14:13.301Z,14.70
2019-05-18T21:16:46.159Z,14.60
2019-05-18T21:19:19.126Z,14.60
2019-05-18T21:21:52.218Z,14.60
2019-05-18T21:24:26.080Z,14.60
2019-05-18T21:26:58.938Z,14.50
2019-05-18T21:29:31.825Z,14.60
2019-05-18T21:32:04.658Z,14.50
2019-05-18T21:34:37.483Z,14.50
2019-05-18T21:37:10.363Z,14.50
2019-05-18T21:39:43.335Z,14.50
2019-05-18T21:42:16.191Z,14.50
2019-05-18T21:44:49.264Z,14.50
2019-05-18T21:47:22.143Z,14.50
2019-05-18T21:49:55.138Z,14.60
2019-05-18T21:52:28.028Z,14.60
2019-05-18T21:55:00.933Z,14.50
2019-05-18T21:57:33.766Z,14.60
2019-05-18T22:00:09.025Z,14.50
2019-05-18T22:02:43.751Z,14.50
2019-05-18T22:05:16.804Z,14.40
2019-05-18T22:07:49.680Z,14.40
2019-05-18T22:10:25.644Z,14.50
2019-05-18T22:12:57.402Z,14.50
2019-05-18T22:15:30.286Z,14.50
2019-05-18T22:18:03.148Z,14.50
2019-05-18T22:20:43.101Z,14.50
2019-05-18T22:23:11.381Z,14.50
2019-05-18T22:25:45.560Z,14.50
2019-05-18T22:28:18.489Z,14.40
2019-05-18T22:30:51.387Z,14.40
2019-05-18T22:33:24.547Z,14.40
2019-05-18T22:35:57.424Z,14.40
2019-05-18T22:38:30.264Z,14.30
2019-05-18T22:41:03.100Z,14.30
2019-05-18T22:43:37.048Z,14.30
2019-05-18T22:46:09.994Z,14.20
2019-05-18T22:48:42.839Z,14.20
2019-05-18T22:51:15.683Z,14.10
2019-05-18T22:53:48.496Z,14.10
2019-05-18T22:56:21.506Z,14.10
2019-05-18T22:58:54.329Z,14.00
2019-05-18T23:01:28.353Z,14.00
2019-05-18T23:04:02.302Z,13.90
2019-05-18T23:06:35.248Z,13.80
2019-05-18T23:09:09.199Z,13.90
2019-05-18T23:11:42.129Z,13.70
2019-05-18T23:14:14.939Z,13.70
2019-05-18T23:16:47.913Z,13.70
2019-05-18T23:19:20.757Z,13.50
2019-05-18T23:21:53.668Z,13.50
2019-05-18T23:24:26.521Z,13.50
2019-05-18T23:26:59.476Z,13.50
2019-05-18T23:29:33.448Z,13.50
2019-05-18T23:32:06.313Z,13.40
2019-05-18T23:34:39.087Z,13.40
2019-05-18T23:37:11.956Z,13.40
2019-05-18T23:39:44.965Z,13.40
2019-05-18T23:42:17.801Z,13.40
2019-05-18T23:44:50.622Z,13.40
2019-05-18T23:47:23.576Z,13.40
2019-05-18T23:49:56.393Z,13.40
2019-05-18T23:52:29.224Z,13.30
2019-05-18T23:55:02.397Z,13.40
2019-05-18T23:57:35.575Z,13.40
